Time;durP1;ratioP1;P1;durP2;ratioP2;P2;SDS_P1;SDS_P2;PMS_P1;PMS_P2;Temp;Humidity;BMP_temperature;BMP_pressure;BME280_temperature;BME280_humidity;BME280_pressure;Samples;Min_cycle;Max_cycle;Signal;HPM_P1;HPM_P2
2021/08/11 00:01:47;;;;;;;6.70;4.85;;;;;;;26.48;nan;95065.94;5011610;28;20045;-71
2021/08/11 00:04:12;;;;;;;7.28;5.22;;;;;;;26.46;nan;95057.53;5008074;28;20056;-71
2021/08/11 00:06:38;;;;;;;7.15;4.90;;;;;;;26.44;nan;95065.50;5017397;28;20034;-71
2021/08/11 00:09:03;;;;;;;6.50;4.78;;;;;;;26.40;nan;95056.91;5027715;28;20103;-71
2021/08/11 00:11:30;;;;;;;7.28;5.20;;;;;;;26.38;nan;95048.44;5021417;28;20092;-71
2021/08/11 00:13:55;;;;;;;8.18;5.10;;;;;;;26.32;nan;95047.81;5017901;28;20489;-70
2021/08/11 00:16:21;;;;;;;7.72;4.68;;;;;;;26.26;nan;95049.91;5027649;28;20033;-71
2021/08/11 00:18:46;;;;;;;5.93;4.60;;;;;;;26.25;nan;95037.50;5028266;28;20032;-71
2021/08/11 00:21:12;;;;;;;6.32;4.97;;;;;;;26.23;nan;95048.22;5027845;28;20131;-71
2021/08/11 00:23:37;;;;;;;7.88;4.75;;;;;;;26.20;nan;95052.00;5027635;28;20444;-72
2021/08/11 00:26:03;;;;;;;19.85;17.55;;;;;;;26.15;nan;95055.59;5027635;28;20096;-71
2021/08/11 00:28:28;;;;;;;6.82;4.72;;;;;;;26.17;nan;95049.59;5010314;28;20029;-71
2021/08/11 00:30:54;;;;;;;7.38;5.22;;;;;;;26.14;nan;95054.13;5007715;28;20505;-72
2021/08/11 00:33:20;;;;;;;9.38;5.10;;;;;;;26.04;nan;95044.88;4988664;28;20033;-71
2021/08/11 00:35:45;;;;;;;7.07;4.85;;;;;;;26.07;nan;95048.53;5007401;28;20519;-71
2021/08/11 00:38:10;;;;;;;9.98;5.45;;;;;;;26.08;nan;95061.69;5020738;28;20030;-71
2021/08/11 00:40:36;;;;;;;8.38;4.70;;;;;;;26.08;nan;95066.44;5024908;28;20030;-72
2021/08/11 00:43:09;;;;;;;6.75;4.85;;;;;;;26.05;nan;95073.72;5025892;28;20048;-71
2021/08/11 00:45:34;;;;;;;9.02;5.57;;;;;;;26.06;nan;95064.22;5008566;28;20029;-71
2021/08/11 00:48:00;;;;;;;8.27;5.50;;;;;;;26.05;nan;95070.97;5011366;28;20052;-71
2021/08/11 00:50:25;;;;;;;9.85;5.28;;;;;;;26.01;nan;95067.81;5043332;28;20021;-71
2021/08/11 00:52:51;;;;;;;6.68;5.00;;;;;;;25.99;nan;95067.59;5026113;28;20080;-71
2021/08/11 00:55:17;;;;;;;7.72;5.20;;;;;;;25.99;nan;95067.59;5027001;28;20029;-71
2021/08/11 00:57:42;;;;;;;7.15;5.20;;;;;;;25.90;nan;95062.53;5027996;28;20033;-71
2021/08/11 01:00:08;;;;;;;8.65;5.03;;;;;;;25.95;nan;95064.44;4997848;28;20028;-71
2021/08/11 01:02:34;;;;;;;7.78;5.03;;;;;;;25.87;nan;95052.66;5030855;28;20032;-72
2021/08/11 01:04:59;;;;;;;7.47;5.18;;;;;;;25.91;nan;95064.00;5008442;28;20040;-71
2021/08/11 01:07:28;;;;;;;9.25;5.35;;;;;;;25.89;nan;95066.53;5026192;28;20026;-71
2021/08/11 01:09:54;;;;;;;7.13;4.55;;;;;;;25.87;nan;95052.66;5026284;28;20053;-72
2021/08/11 01:12:25;;;;;;;7.38;5.57;;;;;;;25.80;nan;95036.84;5016848;28;20068;-72
2021/08/11 01:14:51;;;;;;;6.68;5.00;;;;;;;25.70;nan;95020.63;5046648;28;20035;-72
2021/08/11 01:17:18;;;;;;;7.20;4.82;;;;;;;25.80;nan;95042.31;5027415;28;20033;-71
2021/08/11 01:19:43;;;;;;;7.80;4.80;;;;;;;25.79;nan;95046.31;5036971;28;20029;-72
2021/08/11 01:22:21;;;;;;;7.95;5.38;;;;;;;25.78;nan;95048.84;5014398;28;20033;-72
2021/08/11 01:25:08;;;;;;;8.73;5.45;;;;;;;25.74;nan;95049.16;5026037;28;20052;-71
2021/08/11 01:27:46;;;;;;;8.13;5.30;;;;;;;25.72;nan;95048.19;5024738;28;20052;-72
2021/08/11 01:30:17;;;;;;;7.10;5.05;;;;;;;25.70;nan;95042.53;5026176;28;20554;-72
2021/08/11 01:32:57;;;;;;;8.13;6.25;;;;;;;25.68;nan;95039.56;5026328;28;20025;-72
2021/08/11 01:35:25;;;;;;;6.50;5.28;;;;;;;25.65;nan;95030.41;5008546;28;20036;-72
2021/08/11 01:37:52;;;;;;;6.85;4.75;;;;;;;25.64;nan;95028.19;4986742;28;20029;-72
2021/08/11 01:40:19;;;;;;;6.70;5.25;;;;;;;25.60;nan;95027.72;5018452;28;20037;-72
2021/08/11 01:42:45;;;;;;;8.73;5.50;;;;;;;25.59;nan;95026.25;5024184;28;20033;-72
2021/08/11 01:45:19;;;;;;;7.00;5.22;;;;;;;25.56;nan;95032.75;5025543;28;20075;-72
2021/08/11 01:47:50;;;;;;;7.03;5.68;;;;;;;25.44;nan;95020.53;5024931;28;20116;-72
2021/08/11 01:50:17;;;;;;;6.70;5.38;;;;;;;25.43;nan;95019.81;5007350;28;20082;-72
2021/08/11 01:52:44;;;;;;;7.65;5.75;;;;;;;25.43;nan;95035.50;5022632;28;20037;-71
2021/08/11 01:55:10;;;;;;;8.35;5.43;;;;;;;25.42;nan;95040.19;5007743;28;20036;-72
2021/08/11 01:57:39;;;;;;;9.15;5.85;;;;;;;25.40;nan;95037.25;5017468;28;20025;-72
2021/08/11 02:00:06;;;;;;;9.52;5.93;;;;;;;25.39;nan;95035.03;5008426;28;20661;-72
2021/08/11 02:02:31;;;;;;;8.85;6.05;;;;;;;25.39;nan;95035.03;5022953;28;20033;-72
2021/08/11 02:04:56;;;;;;;10.50;6.43;;;;;;;25.31;nan;95039.66;5025544;28;20094;-72
2021/08/11 02:07:22;;;;;;;7.95;5.93;;;;;;;25.30;nan;95037.44;4991147;28;20087;-72
2021/08/11 02:09:47;;;;;;;10.82;6.45;;;;;;;25.28;nan;95035.22;5025700;28;20040;-72
2021/08/11 02:12:13;;;;;;;6.90;5.90;;;;;;;25.25;nan;95036.28;5002533;28;20098;-72
2021/08/11 02:14:39;;;;;;;7.68;5.80;;;;;;;25.21;nan;95030.38;4988652;28;20045;-72
2021/08/11 02:17:05;;;;;;;10.18;6.10;;;;;;;25.21;nan;95035.84;5006057;28;20032;-72
2021/08/11 02:19:30;;;;;;;8.57;5.22;;;;;;;25.20;nan;95045.31;5008045;28;20486;-70
2021/08/11 02:21:56;;;;;;;8.00;5.65;;;;;;;25.13;nan;95040.44;5022254;28;20485;-71
2021/08/11 02:24:21;;;;;;;8.95;6.22;;;;;;;25.11;nan;95032.03;5025449;28;20044;-71
2021/08/11 02:27:00;;;;;;;9.27;6.45;;;;;;;25.15;nan;95048.84;5006693;28;20030;-72
2021/08/11 02:29:56;;;;;;;8.55;6.20;;;;;;;25.14;nan;95041.91;5024269;28;20068;-71
2021/08/11 02:32:55;;;;;;;8.68;5.82;;;;;;;25.13;nan;95045.16;5007045;28;20496;-72
2021/08/11 02:35:51;;;;;;;8.48;5.53;;;;;;;25.11;nan;95042.97;5004559;28;20116;-71
2021/08/11 02:38:37;;;;;;;7.60;5.78;;;;;;;25.07;nan;95042.50;5003373;28;20433;-71
2021/08/11 02:41:08;;;;;;;7.70;6.18;;;;;;;25.06;nan;95040.31;5024369;28;20033;-71
2021/08/11 02:43:36;;;;;;;10.65;6.43;;;;;;;24.92;nan;95025.81;5023259;28;20033;-71
2021/08/11 02:46:10;;;;;;;8.65;5.85;;;;;;;25.06;nan;95046.50;4990119;28;20128;-71
2021/08/11 02:48:36;;;;;;;7.65;5.95;;;;;;;25.05;nan;95039.56;5003807;28;20095;-72
2021/08/11 02:51:05;;;;;;;8.43;5.80;;;;;;;25.06;nan;95030.09;5006155;28;20563;-71
2021/08/11 02:53:31;;;;;;;7.70;6.13;;;;;;;25.03;nan;95030.41;5025264;28;20108;-71
2021/08/11 02:55:56;;;;;;;8.10;5.93;;;;;;;25.04;nan;95038.09;5023007;28;20117;-71
2021/08/11 02:58:22;;;;;;;8.90;6.55;;;;;;;24.97;nan;95033.19;5008726;28;20621;-72
2021/08/11 03:00:51;;;;;;;8.18;5.93;;;;;;;25.01;nan;95039.13;5002043;28;20030;-71
2021/08/11 03:03:16;;;;;;;9.87;5.97;;;;;;;24.99;nan;95030.72;4994051;28;20536;-71
2021/08/11 03:05:42;;;;;;;8.32;5.65;;;;;;;24.96;nan;95031.72;5019397;28;20048;-71
2021/08/11 03:08:08;;;;;;;10.10;6.30;;;;;;;24.98;nan;95036.66;5007692;28;20060;-71
2021/08/11 03:10:33;;;;;;;8.65;5.93;;;;;;;24.96;nan;95030.97;4993160;28;20026;-71
2021/08/11 03:12:59;;;;;;;9.13;6.57;;;;;;;24.91;nan;95029.78;5026918;28;20106;-71
2021/08/11 03:15:25;;;;;;;8.65;6.07;;;;;;;24.91;nan;95035.25;5026942;28;20025;-71
2021/08/11 03:17:51;;;;;;;8.00;6.07;;;;;;;24.91;nan;95029.78;5028636;28;20041;-71
2021/08/11 03:20:16;;;;;;;7.80;6.28;;;;;;;24.88;nan;95036.28;5028615;28;20044;-72
2021/08/11 03:22:41;;;;;;;8.27;5.95;;;;;;;24.87;nan;95045.75;5028419;28;20563;-72
2021/08/11 03:25:07;;;;;;;8.27;6.47;;;;;;;24.86;nan;95032.63;5028905;28;20037;-71
2021/08/11 03:27:33;;;;;;;8.40;5.90;;;;;;;24.84;nan;95046.81;5025602;28;20052;-71
2021/08/11 03:29:58;;;;;;;8.82;5.70;;;;;;;24.82;nan;95058.75;5028578;28;20029;-72
2021/08/11 03:32:24;;;;;;;7.95;5.95;;;;;;;24.80;nan;95061.25;5004782;28;20032;-71
2021/08/11 03:34:49;;;;;;;7.75;6.22;;;;;;;24.76;nan;95060.81;5008513;28;20515;-72
2021/08/11 03:37:16;;;;;;;7.88;5.60;;;;;;;24.75;nan;95053.88;5027599;28;20079;-72
2021/08/11 03:39:42;;;;;;;8.95;6.28;;;;;;;24.72;nan;95044.00;5027212;28;20531;-71
2021/08/11 03:42:08;;;;;;;8.35;6.43;;;;;;;24.70;nan;95047.22;5028800;28;20025;-71
2021/08/11 03:44:33;;;;;;;9.32;6.00;;;;;;;24.70;nan;95058.16;5028434;28;20037;-71
2021/08/11 03:46:59;;;;;;;9.98;6.47;;;;;;;24.67;nan;95063.94;5026603;28;20029;-72
2021/08/11 03:49:24;;;;;;;8.43;6.43;;;;;;;24.69;nan;95077.78;5028110;28;20065;-71
2021/08/11 03:51:50;;;;;;;10.80;6.20;;;;;;;24.69;nan;95072.31;5027621;28;20033;-71
2021/08/11 03:54:15;;;;;;;10.07;6.50;;;;;;;24.67;nan;95080.31;5027912;28;20033;-71
2021/08/11 03:56:41;;;;;;;12.63;6.97;;;;;;;24.68;nan;95088.00;5027689;28;20087;-71
2021/08/11 03:59:06;;;;;;;9.88;6.75;;;;;;;24.65;nan;95093.72;5020247;28;20119;-71
2021/08/11 04:01:31;;;;;;;10.00;6.32;;;;;;;24.61;nan;95093.28;5007566;28;20040;-71
2021/08/11 04:03:57;;;;;;;8.75;6.57;;;;;;;24.56;nan;95085.91;5026694;28;20059;-72
2021/08/11 04:06:22;;;;;;;11.20;6.55;;;;;;;24.55;nan;95089.88;5030932;28;20464;-71
2021/08/11 04:08:48;;;;;;;9.65;6.38;;;;;;;24.56;nan;95091.38;5027782;28;20445;-71
2021/08/11 04:11:13;;;;;;;9.95;6.38;;;;;;;24.56;nan;95085.91;5024015;28;20025;-71
2021/08/11 04:13:39;;;;;;;9.65;6.60;;;;;;;24.58;nan;95084.13;5027042;28;20037;-72
2021/08/11 04:16:04;;;;;;;11.38;6.32;;;;;;;24.59;nan;95084.88;5025619;28;20033;-72
2021/08/11 04:18:30;;;;;;;10.57;6.85;;;;;;;24.63;nan;95085.31;5026857;28;20086;-75
2021/08/11 04:20:55;;;;;;;1671.32;670.30;;;;;;;24.65;nan;95077.34;5019859;28;20038;-73
2021/08/11 04:23:21;;;;;;;186.38;40.70;;;;;;;24.70;nan;95085.47;5026828;28;20034;-73
2021/08/11 04:25:46;;;;;;;8.68;6.60;;;;;;;24.71;nan;95091.66;5027344;28;20754;-72
2021/08/11 04:28:12;;;;;;;588.55;305.63;;;;;;;24.74;nan;95096.09;5026589;28;20037;-73
2021/08/11 04:30:37;;;;;;;1999.90;999.90;;;;;;;24.58;nan;95067.03;5009233;28;20033;-74
2021/08/11 04:33:02;;;;;;;605.33;290.05;;;;;;;24.74;nan;95090.63;5009424;28;20411;-73
2021/08/11 04:35:28;;;;;;;1920.47;922.38;;;;;;;24.80;nan;95099.50;5032970;28;20040;-75
2021/08/11 04:37:53;;;;;;;757.15;413.55;;;;;;;24.86;nan;95093.44;5038666;28;20556;-75
2021/08/11 04:40:19;;;;;;;1999.90;999.90;;;;;;;24.93;nan;95098.34;5034168;28;20025;-74
2021/08/11 04:42:44;;;;;;;1999.90;999.90;;;;;;;25.03;nan;95091.25;5027139;28;20095;-75
2021/08/11 04:45:10;;;;;;;1999.90;999.90;;;;;;;25.03;nan;95069.38;5036535;28;20040;-74
2021/08/11 04:47:36;;;;;;;1999.90;980.33;;;;;;;25.22;nan;95081.06;5044673;28;20029;-76
2021/08/11 04:50:02;;;;;;;1999.90;999.90;;;;;;;25.33;nan;95075.41;5040564;28;20033;-71
2021/08/11 04:52:28;;;;;;;1999.90;999.90;;;;;;;25.45;nan;95076.72;5033491;28;20484;-72
2021/08/11 04:54:53;;;;;;;1999.90;999.90;;;;;;;25.49;nan;95077.88;5026421;28;20025;-72
2021/08/11 04:57:19;;;;;;;1999.90;999.90;;;;;;;25.68;nan;95091.53;5026417;28;20777;-72
2021/08/11 04:59:44;;;;;;;1999.90;999.90;;;;;;;25.81;nan;95081.34;5034166;28;20025;-73
2021/08/11 05:02:10;;;;;;;1999.90;999.90;;;;;;;25.91;nan;95076.97;5016239;28;20029;-73
2021/08/11 05:04:35;;;;;;;1999.90;999.90;;;;;;;25.98;nan;95074.34;5031550;28;20055;-73
2021/08/11 05:07:04;;;;;;;1999.90;999.90;;;;;;;26.07;nan;95082.13;5029640;28;20109;-74
2021/08/11 05:09:32;;;;;;;1999.90;999.90;;;;;;;26.17;nan;95083.19;5031951;28;20025;-74
2021/08/11 05:11:57;;;;;;;1999.90;999.90;;;;;;;26.22;nan;95082.34;5029044;28;20465;-73
2021/08/11 05:14:23;;;;;;;1999.90;999.90;;;;;;;26.27;nan;95086.97;5021463;28;20029;-74
2021/08/11 05:16:48;;;;;;;1999.90;999.90;;;;;;;26.39;nan;95086.25;5006352;28;20108;-73
2021/08/11 05:19:13;;;;;;;1999.90;999.90;;;;;;;26.46;nan;95090.38;5010571;28;20511;-72
2021/08/11 05:21:39;;;;;;;1999.90;999.90;;;;;;;26.54;nan;95091.22;5018492;28;20082;-74
2021/08/11 05:24:04;;;;;;;1999.90;999.90;;;;;;;26.59;nan;95088.38;5022701;28;20099;-74
2021/08/11 05:26:30;;;;;;;1999.90;999.90;;;;;;;26.69;nan;95088.69;5030025;28;20075;-75
2021/08/11 05:28:55;;;;;;;1999.90;999.90;;;;;;;26.77;nan;95088.25;5027743;28;20025;-74
2021/08/11 05:31:21;;;;;;;1999.90;999.90;;;;;;;26.87;nan;95097.47;5026194;28;20024;-73
2021/08/11 05:33:46;;;;;;;1999.90;999.90;;;;;;;26.85;nan;95083.56;5011196;28;20026;-73
2021/08/11 05:36:12;;;;;;;1999.90;999.90;;;;;;;26.91;nan;95076.00;5025754;28;20120;-73
2021/08/11 05:38:37;;;;;;;1999.90;999.90;;;;;;;27.06;nan;95087.13;5025995;28;20504;-73
2021/08/11 05:41:03;;;;;;;1999.90;999.90;;;;;;;26.99;nan;95070.59;5019625;28;20029;-73
2021/08/11 05:43:28;;;;;;;1999.90;999.90;;;;;;;27.21;nan;95087.31;5001040;28;20825;-75
2021/08/11 05:45:54;;;;;;;1999.90;999.90;;;;;;;27.29;nan;95099.09;5036406;28;20025;-72
2021/08/11 05:48:19;;;;;;;1999.90;999.90;;;;;;;27.38;nan;95090.41;5034758;28;20037;-72
2021/08/11 05:50:45;;;;;;;1999.90;999.90;;;;;;;27.49;nan;95095.66;5031724;28;20021;-72
2021/08/11 05:53:10;;;;;;;1999.90;999.90;;;;;;;27.52;nan;95094.59;5028735;28;20073;-71
2021/08/11 05:55:36;;;;;;;1999.90;999.90;;;;;;;27.62;nan;95103.84;5031196;28;20033;-72
2021/08/11 05:58:02;;;;;;;1999.90;999.90;;;;;;;27.62;nan;95070.91;5009085;28;20025;-72
2021/08/11 06:00:27;;;;;;;1999.90;999.90;;;;;;;27.77;nan;95088.97;5010985;28;20025;-72
2021/08/11 06:02:52;;;;;;;1999.90;999.90;;;;;;;27.86;nan;95087.75;5031497;28;20049;-72
2021/08/11 06:05:18;;;;;;;1999.90;999.90;;;;;;;27.74;nan;95072.84;5026159;28;20037;-72
2021/08/11 06:07:43;;;;;;;1999.90;999.90;;;;;;;27.90;nan;95091.63;5015668;28;20516;-72
2021/08/11 06:10:09;;;;;;;1999.90;999.90;;;;;;;27.95;nan;95090.78;5025270;28;20440;-71
2021/08/11 06:12:35;;;;;;;1999.90;999.90;;;;;;;28.01;nan;95085.88;5037042;28;20178;-72
2021/08/11 06:15:00;;;;;;;1999.90;999.90;;;;;;;28.11;nan;95078.66;5025905;28;20033;-73
2021/08/11 06:17:26;;;;;;;1999.90;999.90;;;;;;;28.20;nan;95086.41;5035634;28;20110;-71
2021/08/11 06:19:52;;;;;;;1999.90;999.90;;;;;;;28.28;nan;95076.19;5035585;28;20060;-71
2021/08/11 06:22:17;;;;;;;1999.90;999.90;;;;;;;28.34;nan;95074.03;5025843;28;20043;-70
2021/08/11 06:24:43;;;;;;;1999.90;999.90;;;;;;;28.28;nan;95059.69;5031309;28;20033;-70
2021/08/11 06:27:08;;;;;;;1999.90;999.90;;;;;;;28.39;nan;95064.91;4998722;28;20040;-71
2021/08/11 06:29:34;;;;;;;1873.35;999.90;;;;;;;28.58;nan;95070.88;5016267;28;20547;-72
2021/08/11 06:31:59;;;;;;;1999.90;999.90;;;;;;;28.70;nan;95077.53;5015849;28;20037;-70
2021/08/11 06:34:25;;;;;;;1999.90;999.90;;;;;;;28.85;nan;95072.88;5038586;28;20026;-71
2021/08/11 06:36:51;;;;;;;1999.90;999.90;;;;;;;28.95;nan;95071.81;5026203;28;20111;-71
2021/08/11 06:39:16;;;;;;;1999.90;999.90;;;;;;;29.09;nan;95070.38;5008466;28;20056;-74
2021/08/11 06:41:42;;;;;;;1999.90;999.90;;;;;;;29.21;nan;95071.50;5027050;28;20030;-72
2021/08/11 06:44:07;;;;;;;1999.90;999.90;;;;;;;29.32;nan;95060.19;5039703;28;20033;-72
2021/08/11 06:46:33;;;;;;;1999.90;999.90;;;;;;;29.41;nan;95059.66;5040879;28;20659;-72
2021/08/11 06:48:59;;;;;;;1879.95;999.90;;;;;;;29.48;nan;95061.69;5043883;28;20040;-72
2021/08/11 06:51:25;;;;;;;1999.90;999.90;;;;;;;29.52;nan;95045.53;5037333;28;20488;-72
2021/08/11 06:53:50;;;;;;;1885.50;999.90;;;;;;;29.44;nan;95044.81;5025241;28;20067;-72
2021/08/11 06:56:15;;;;;;;1689.97;999.90;;;;;;;29.41;nan;95029.38;5025169;28;20122;-72
2021/08/11 06:58:41;;;;;;;1912.00;999.90;;;;;;;29.56;nan;95062.44;5037163;28;20523;-72
2021/08/11 07:01:06;;;;;;;1999.90;999.90;;;;;;;29.56;nan;95051.41;5031899;28;20033;-72
2021/08/11 07:03:32;;;;;;;1999.90;999.90;;;;;;;29.53;nan;95058.03;5020549;28;20107;-72
2021/08/11 07:05:57;;;;;;;1999.90;999.90;;;;;;;29.52;nan;95062.03;5014687;28;20033;-72
2021/08/11 07:08:23;;;;;;;1999.90;999.90;;;;;;;29.51;nan;95055.09;5034831;28;20462;-72
2021/08/11 07:10:49;;;;;;;1999.90;999.90;;;;;;;29.45;nan;95058.00;5046880;28;20036;-72
2021/08/11 07:13:15;;;;;;;1999.90;999.90;;;;;;;29.45;nan;95062.78;5026010;28;20021;-71
2021/08/11 07:15:40;;;;;;;1999.90;999.90;;;;;;;29.45;nan;95068.28;5046036;28;20033;-71
2021/08/11 07:18:06;;;;;;;1999.90;999.90;;;;;;;29.28;nan;95125.84;5041932;28;20160;-71
2021/08/11 07:20:32;;;;;;;1999.90;999.90;;;;;;;29.39;nan;95076.00;5046078;28;20016;-72
2021/08/11 07:22:58;;;;;;;1999.90;999.90;;;;;;;29.40;nan;95066.44;5013002;28;20030;-72
2021/08/11 07:25:24;;;;;;;1999.90;999.90;;;;;;;29.40;nan;95066.44;5040397;28;20025;-72
2021/08/11 07:27:50;;;;;;;1999.90;999.90;;;;;;;29.40;nan;95066.44;5029563;28;20048;-72
2021/08/11 07:30:15;;;;;;;1999.90;999.90;;;;;;;29.37;nan;95067.53;5028171;28;20436;-72
2021/08/11 07:32:42;;;;;;;1999.90;999.90;;;;;;;29.37;nan;95070.28;5027929;28;20013;-72
2021/08/11 07:35:08;;;;;;;1999.90;999.90;;;;;;;29.38;nan;95063.50;5027651;28;20140;-72
2021/08/11 07:37:53;;;;;;;1999.90;999.90;;;;;;;29.35;nan;95075.59;5031013;28;20156;-72
2021/08/11 07:40:19;;;;;;;1999.90;999.90;;;;;;;29.33;nan;95072.69;5029231;28;20809;-72
2021/08/11 07:42:45;;;;;;;1999.90;999.90;;;;;;;29.23;nan;95057.94;5030012;28;20029;-71
2021/08/11 07:45:11;;;;;;;1999.90;999.90;;;;;;;29.28;nan;95066.06;5040666;28;20021;-72
2021/08/11 07:47:36;;;;;;;1999.90;999.90;;;;;;;29.27;nan;95080.38;5028158;28;20035;-72
2021/08/11 07:50:03;;;;;;;1999.90;999.90;;;;;;;29.27;nan;95075.59;5027021;28;20107;-72
2021/08/11 07:52:28;;;;;;;1999.90;999.90;;;;;;;29.25;nan;95077.41;5024748;28;20031;-72
2021/08/11 07:54:54;;;;;;;1999.90;999.90;;;;;;;29.25;nan;95071.91;5027908;28;20026;-72
2021/08/11 07:57:19;;;;;;;1999.90;999.90;;;;;;;29.16;nan;95042.13;5023715;28;20033;-72
2021/08/11 07:59:44;;;;;;;1999.90;999.90;;;;;;;29.21;nan;95050.22;5006139;28;20026;-72
2021/08/11 08:02:11;;;;;;;1999.90;999.90;;;;;;;29.20;nan;95064.53;5006943;28;20111;-72
2021/08/11 08:04:37;;;;;;;1999.90;999.90;;;;;;;29.19;nan;95052.81;5019193;28;20057;-72
2021/08/11 08:07:03;;;;;;;1999.90;999.90;;;;;;;29.17;nan;95049.13;5008043;28;20033;-73
2021/08/11 08:09:28;;;;;;;1999.90;999.90;;;;;;;29.16;nan;95064.16;5027331;28;20044;-72
2021/08/11 08:11:54;;;;;;;1999.90;999.58;;;;;;;29.15;nan;95061.94;5025956;28;20104;-72
2021/08/11 08:14:19;;;;;;;1999.90;999.55;;;;;;;29.00;nan;95045.41;5009572;28;20029;-72
2021/08/11 08:16:45;;;;;;;1999.90;996.70;;;;;;;29.12;nan;95058.28;5008973;28;20025;-72
2021/08/11 08:19:10;;;;;;;1999.90;995.22;;;;;;;29.15;nan;95061.94;5009587;28;20022;-72
2021/08/11 08:21:35;;;;;;;1999.90;995.65;;;;;;;29.11;nan;95056.81;5008536;28;20030;-72
2021/08/11 08:24:01;;;;;;;1999.90;997.28;;;;;;;29.09;nan;95048.38;5025719;28;20030;-72
2021/08/11 08:26:26;;;;;;;1999.90;995.80;;;;;;;29.09;nan;95053.88;5023223;28;20029;-72
2021/08/11 08:28:52;;;;;;;1999.90;983.90;;;;;;;29.07;nan;95039.91;5009453;28;20159;-72
2021/08/11 08:31:17;;;;;;;1999.90;983.45;;;;;;;28.99;nan;95044.66;5025392;28;20025;-72
2021/08/11 08:33:43;;;;;;;1999.90;982.67;;;;;;;29.04;nan;95046.50;5009077;28;20029;-71
2021/08/11 08:36:09;;;;;;;1999.90;983.13;;;;;;;29.02;nan;95043.56;5008521;28;20040;-71
2021/08/11 08:38:35;;;;;;;1419.25;916.85;;;;;;;29.03;nan;95034.06;5026863;28;20519;-71
2021/08/11 08:41:00;;;;;;;1363.13;954.25;;;;;;;29.00;nan;95040.66;5027051;28;20025;-71
2021/08/11 08:43:26;;;;;;;1411.18;932.20;;;;;;;28.97;nan;95036.25;5009190;28;20021;-71
2021/08/11 08:45:52;;;;;;;1329.65;916.85;;;;;;;28.98;nan;95037.69;5023680;28;20028;-71
2021/08/11 08:48:17;;;;;;;1589.95;914.50;;;;;;;28.99;nan;95033.66;4992892;28;20109;-71
2021/08/11 08:50:43;;;;;;;1585.43;892.60;;;;;;;29.01;nan;95036.59;5008321;28;20496;-71
2021/08/11 08:53:08;;;;;;;1174.53;868.45;;;;;;;28.87;nan;95020.81;4992593;28;20026;-71
2021/08/11 08:55:34;;;;;;;1458.10;895.90;;;;;;;29.04;nan;95035.50;4998934;28;20065;-71
2021/08/11 08:58:01;;;;;;;1890.57;917.65;;;;;;;29.03;nan;95028.56;5008812;28;20044;-71
2021/08/11 09:00:26;;;;;;;1999.90;912.90;;;;;;;29.03;nan;95017.56;5012235;28;20064;-67
2021/08/11 09:02:52;;;;;;;1999.90;909.83;;;;;;;29.01;nan;95020.09;4999200;28;20050;-73
2021/08/11 09:05:17;;;;;;;1999.90;906.15;;;;;;;28.77;nan;95001.34;5021680;28;20050;-71
2021/08/11 09:07:44;;;;;;;1999.90;905.45;;;;;;;28.55;nan;95011.50;4980892;28;20038;-72
2021/08/11 09:10:18;;;;;;;1645.50;918.28;;;;;;;28.00;nan;95013.00;5024987;28;20030;-72
2021/08/11 09:12:44;;;;;;;1650.88;917.15;;;;;;;27.58;nan;95021.09;5024988;28;20087;-72
2021/08/11 09:15:24;;;;;;;1645.70;919.03;;;;;;;27.18;nan;95022.56;5026070;28;20029;-72
2021/08/11 09:17:50;;;;;;;1615.93;916.72;;;;;;;26.88;nan;94996.84;5026825;28;20565;-73
2021/08/11 09:20:21;;;;;;;1598.18;913.00;;;;;;;26.72;nan;95019.84;5024903;28;20014;-70
2021/08/11 09:22:50;;;;;;;1587.07;918.35;;;;;;;26.76;nan;95010.03;5008004;28;20420;-72
2021/08/11 09:25:15;;;;;;;1586.30;920.67;;;;;;;26.82;nan;95018.88;5023722;28;20049;-71
2021/08/11 09:27:42;;;;;;;1580.70;919.83;;;;;;;26.82;nan;95018.88;5024464;28;20435;-71
2021/08/11 09:30:14;;;;;;;1645.80;928.78;;;;;;;26.87;nan;95020.00;5025793;28;20623;-73
2021/08/11 09:33:02;;;;;;;1637.57;927.55;;;;;;;26.88;nan;95005.78;5026602;28;20159;-72
2021/08/11 09:35:35;;;;;;;1616.75;920.72;;;;;;;26.90;nan;95008.75;5026918;28;20032;-72
2021/08/11 09:38:02;;;;;;;1607.35;920.53;;;;;;;26.88;nan;95027.69;5027590;28;20047;-72
2021/08/11 09:40:29;;;;;;;1609.70;920.83;;;;;;;26.78;nan;95007.50;5037190;28;20187;-72
2021/08/11 09:43:02;;;;;;;1606.70;921.08;;;;;;;26.88;nan;95005.78;5008403;28;20640;-72
2021/08/11 09:45:47;;;;;;;1604.00;921.85;;;;;;;27.04;nan;94996.47;5025740;28;20123;-75
2021/08/11 09:48:13;;;;;;;1601.32;919.90;;;;;;;27.19;nan;94990.38;5023594;28;20021;-75
2021/08/11 09:50:44;;;;;;;1602.65;919.95;;;;;;;27.32;nan;94982.81;5035777;28;20052;-72
2021/08/11 09:53:10;;;;;;;1605.72;920.80;;;;;;;27.50;nan;94998.38;5038577;28;20025;-71
2021/08/11 09:56:23;;;;;;;1617.45;922.65;;;;;;;27.73;nan;94989.03;5025102;28;20032;-71
2021/08/11 09:59:07;;;;;;;1617.78;921.38;;;;;;;27.98;nan;94992.84;5033339;28;20037;-72
2021/08/11 10:01:32;;;;;;;1615.45;920.92;;;;;;;28.14;nan;94989.69;5039327;28;20039;-71
2021/08/11 10:04:05;;;;;;;1617.82;921.25;;;;;;;28.29;nan;94984.28;5028975;28;20714;-72
2021/08/11 10:06:39;;;;;;;1610.88;919.50;;;;;;;28.36;nan;94978.09;5030985;28;20028;-76
2021/08/11 10:09:11;;;;;;;1614.40;919.97;;;;;;;28.45;nan;94978.28;5019778;28;20105;-71
2021/08/11 10:11:37;;;;;;;1610.60;917.83;;;;;;;28.58;nan;94978.19;5024872;28;20076;-71
2021/08/11 10:14:10;;;;;;;1608.20;917.38;;;;;;;28.68;nan;94981.88;5022145;28;20058;-71
2021/08/11 10:16:36;;;;;;;1610.47;919.47;;;;;;;28.71;nan;94974.56;5022926;28;20025;-72
2021/08/11 10:19:06;;;;;;;1615.68;920.08;;;;;;;28.77;nan;94979.38;5029753;28;20843;-72
2021/08/11 10:21:34;;;;;;;;;;;;;;;28.85;nan;94980.13;5036199;28;20171;-72
2021/08/11 10:24:00;;;;;;;1611.00;918.72;;;;;;;28.88;nan;94972.78;5009524;28;19924;-75
2021/08/11 10:26:27;;;;;;;1613.43;918.88;;;;;;;28.92;nan;94962.91;5020123;28;20034;-75
2021/08/11 10:28:53;;;;;;;1609.63;917.78;;;;;;;28.96;nan;94962.53;5012100;28;20170;-74
2021/08/11 10:31:18;;;;;;;1611.55;917.85;;;;;;;28.97;nan;94959.25;5028552;28;20029;-75
2021/08/11 10:33:47;;;;;;;1609.30;916.20;;;;;;;29.02;nan;94958.31;5062468;28;20021;-75
2021/08/11 10:36:13;;;;;;;1613.75;916.53;;;;;;;28.96;nan;94946.75;5045985;28;20033;-71
2021/08/11 10:38:38;;;;;;;1604.15;911.65;;;;;;;29.08;nan;94969.16;4999462;28;20488;-70
2021/08/11 10:41:03;;;;;;;1597.07;908.53;;;;;;;29.05;nan;94959.25;5023544;28;20041;-71
2021/08/11 10:43:35;;;;;;;1593.55;908.63;;;;;;;29.01;nan;94951.34;5026930;28;20087;-71
2021/08/11 10:46:05;;;;;;;1577.25;905.10;;;;;;;28.87;nan;94944.53;5015104;28;20472;-71
2021/08/11 10:48:30;;;;;;;1553.40;898.15;;;;;;;28.61;nan;94954.34;4995382;28;20385;-71
2021/08/11 10:50:55;;;;;;;1553.88;900.08;;;;;;;28.18;nan;94939.91;5040314;28;20051;-72
2021/08/11 10:53:21;;;;;;;1546.90;898.95;;;;;;;27.76;nan;94939.28;5027415;28;20032;-71
2021/08/11 10:55:48;;;;;;;1556.18;899.38;;;;;;;27.32;nan;94944.44;5009507;28;20107;-72
2021/08/11 10:58:41;;;;;;;1543.93;896.70;;;;;;;26.86;nan;94931.59;5030728;28;20037;-71
2021/08/11 11:01:29;;;;;;;1534.00;894.42;;;;;;;26.51;nan;94927.94;5027117;28;20423;-71
2021/08/11 11:03:55;;;;;;;1544.85;896.20;;;;;;;26.34;nan;94931.03;5034722;28;20124;-71
2021/08/11 11:06:21;;;;;;;1549.13;895.15;;;;;;;26.23;nan;94925.03;5034742;28;20032;-71
2021/08/11 11:08:46;;;;;;;1555.88;897.20;;;;;;;26.16;nan;94914.75;5006923;28;20026;-72
2021/08/11 11:11:31;;;;;;;1531.15;890.22;;;;;;;26.10;nan;94911.38;5007113;28;20113;-71
2021/08/11 11:13:57;;;;;;;1517.43;883.70;;;;;;;26.09;nan;94920.84;5024750;28;20080;-72
2021/08/11 11:16:22;;;;;;;1523.25;889.05;;;;;;;26.10;nan;94916.84;5025122;28;20412;-72
2021/08/11 11:19:07;;;;;;;1546.72;893.58;;;;;;;26.14;nan;94911.78;5006899;28;20488;-72
2021/08/11 11:21:33;;;;;;;1539.80;886.92;;;;;;;26.20;nan;94903.44;5024466;28;20051;-73
2021/08/11 11:23:58;;;;;;;1548.07;891.00;;;;;;;26.28;nan;94910.53;5024665;28;20033;-71
2021/08/11 11:26:33;;;;;;;;;;;;;;;26.41;nan;94905.00;5023657;28;20037;-71